Time;durP1;ratioP1;P1;durP2;ratioP2;P2;SDS_P1;SDS_P2;PMS_P1;PMS_P2;Temp;Humidity;BMP_temperature;BMP_pressure;BME280_temperature;BME280_humidity;BME280_pressure;Samples;Min_cycle;Max_cycle;Signal;HPM_P1;HPM_P2
2023/03/15 00:00:43;;;;;;;10.35;2.00;;;;;;;3.29;100.00;101194.22;10421523;28;20096;-83
2023/03/15 00:05:47;;;;;;;5.20;1.25;;;;;;;3.15;100.00;101175.91;10437352;28;20056;-80
2023/03/15 00:10:47;;;;;;;1.38;1.27;;;;;;;3.00;100.00;101181.72;10459733;28;20044;-82
2023/03/15 00:15:49;;;;;;;1.42;1.08;;;;;;;2.83;100.00;101195.78;10446670;28;20040;-80
2023/03/15 00:20:50;;;;;;;9.15;1.67;;;;;;;2.66;100.00;101196.47;10458113;28;20040;-81
2023/03/15 00:25:50;;;;;;;10.70;1.77;;;;;;;2.64;100.00;101193.94;10454110;28;20030;-81
2023/03/15 00:31:02;;;;;;;4.88;1.92;;;;;;;2.67;100.00;101199.00;10446484;28;20481;-81
2023/03/15 00:36:04;;;;;;;1.60;1.38;;;;;;;2.71;100.00;101212.94;10447794;28;20056;-82
2023/03/15 00:41:06;;;;;;;1.20;1.20;;;;;;;2.72;100.00;101212.81;10449915;28;20108;-81
2023/03/15 00:46:06;;;;;;;2.47;1.35;;;;;;;2.59;100.00;101206.03;10458487;28;20030;-80
2023/03/15 00:51:08;;;;;;;1.65;1.55;;;;;;;2.41;100.00;101220.06;10457288;28;20068;-81
2023/03/15 00:56:19;;;;;;;1.15;1.15;;;;;;;2.27;100.00;101223.13;10450673;28;20044;-81
2023/03/15 01:01:22;;;;;;;3.90;1.45;;;;;;;2.13;100.00;101227.00;10449302;28;20491;-80
2023/03/15 01:06:24;;;;;;;0.70;0.70;;;;;;;2.01;100.00;101238.75;10439904;28;20033;-80
2023/03/15 01:11:26;;;;;;;1.10;1.10;;;;;;;1.96;100.00;101241.84;10433535;28;20045;-81
2023/03/15 01:16:26;;;;;;;1.42;1.38;;;;;;;1.92;100.00;101244.91;10424299;28;20377;-81
2023/03/15 01:21:26;;;;;;;1.13;1.13;;;;;;;1.91;100.00;101254.72;10421793;28;20105;-81
2023/03/15 01:26:27;;;;;;;1.55;1.45;;;;;;;1.97;100.00;101251.53;10438663;28;20037;-80
2023/03/15 01:31:28;;;;;;;1.13;1.13;;;;;;;2.07;100.00;101260.47;10458874;28;20042;-82
2023/03/15 01:36:29;;;;;;;1.35;1.33;;;;;;;2.14;100.00;101266.09;10442277;28;20037;-83
2023/03/15 01:41:29;;;;;;;9.85;5.00;;;;;;;2.16;100.00;101273.97;10419634;28;20381;-85
2023/03/15 01:46:34;;;;;;;2.70;2.42;;;;;;;2.17;100.00;101283.66;10416006;28;20104;-83
2023/03/15 01:51:46;;;;;;;2.22;2.08;;;;;;;2.13;100.00;101292.94;10418314;28;20499;-82
2023/03/15 01:56:54;;;;;;;6.25;1.90;;;;;;;2.00;100.00;101304.69;10426722;28;20025;-82
2023/03/15 02:01:54;;;;;;;1.85;1.73;;;;;;;2.04;100.00;101303.47;10444035;28;20057;-81
2023/03/15 02:07:00;;;;;;;2.15;1.27;;;;;;;2.26;100.00;101313.09;10452354;28;20045;-81
2023/03/15 02:12:01;;;;;;;1.25;1.25;;;;;;;2.40;100.00;101314.59;10424826;28;20037;-81
2023/03/15 02:17:01;;;;;;;1.63;1.52;;;;;;;2.50;100.00;101320.81;10402856;28;20049;-81
2023/03/15 02:22:39;;;;;;;2.65;1.08;;;;;;;2.54;100.00;101322.25;10426042;28;20030;-81
2023/03/15 02:27:40;;;;;;;2.17;1.67;;;;;;;2.39;100.00;101328.06;10434250;28;20038;-79
2023/03/15 02:32:40;;;;;;;1.38;1.30;;;;;;;2.24;100.00;101330.28;10444371;28;20048;-80
2023/03/15 02:37:44;;;;;;;3.28;1.55;;;;;;;2.09;100.00;101335.94;10456616;28;20063;-79
2023/03/15 02:42:45;;;;;;;2.20;1.70;;;;;;;2.01;100.00;101340.25;10466747;28;20063;-79
2023/03/15 02:47:46;;;;;;;2.50;1.80;;;;;;;1.92;100.00;101347.25;10432255;28;20037;-79
2023/03/15 02:52:46;;;;;;;2.60;1.88;;;;;;;1.81;100.00;101355.31;10451160;28;20025;-78
2023/03/15 02:57:47;;;;;;;1.77;1.17;;;;;;;1.72;100.00;101378.28;10448648;28;20044;-80
2023/03/15 03:02:47;;;;;;;4.13;1.55;;;;;;;1.70;100.00;101390.06;10444414;28;20037;-81
2023/03/15 03:07:49;;;;;;;6.50;1.40;;;;;;;1.76;100.00;101395.75;10461775;28;20022;-80
2023/03/15 03:12:52;;;;;;;8.85;2.03;;;;;;;1.94;100.00;101406.69;10460341;28;20029;-80
2023/03/15 03:17:53;;;;;;;5.47;1.50;;;;;;;2.20;100.00;101415.19;10447341;28;20037;-80
2023/03/15 03:22:54;;;;;;;1.63;1.52;;;;;;;2.22;100.00;101418.56;10438677;28;20042;-80
2023/03/15 03:27:55;;;;;;;1.35;1.35;;;;;;;2.19;100.00;101418.84;10437013;28;20053;-80
2023/03/15 03:32:56;;;;;;;1.20;1.10;;;;;;;2.19;100.00;101418.84;10424430;28;20060;-80
2023/03/15 03:37:56;;;;;;;2.88;1.73;;;;;;;2.22;100.00;101415.06;10423362;28;20091;-80
2023/03/15 03:42:57;;;;;;;2.33;1.27;;;;;;;2.15;100.00;101427.25;10419819;28;20512;-81
2023/03/15 03:47:57;;;;;;;1.42;1.30;;;;;;;2.15;100.00;101429.91;10419754;28;20065;-81
2023/03/15 03:52:57;;;;;;;1.52;1.42;;;;;;;2.19;100.00;101428.69;10419778;28;20453;-81
2023/03/15 03:57:58;;;;;;;7.35;1.73;;;;;;;2.21;100.00;101442.75;10425775;28;20124;-80
2023/03/15 04:03:00;;;;;;;1.83;1.58;;;;;;;2.22;100.00;101449.78;10402627;28;20413;-79
2023/03/15 04:08:01;;;;;;;1.35;1.35;;;;;;;2.16;100.00;101456.50;10418187;28;20115;-79
2023/03/15 04:13:02;;;;;;;2.53;1.80;;;;;;;1.96;100.00;101463.50;10419188;28;20592;-80
2023/03/15 04:18:04;;;;;;;5.53;1.85;;;;;;;1.79;100.00;101480.94;10431629;28;20053;-81
2023/03/15 04:23:06;;;;;;;10.95;2.10;;;;;;;1.82;100.00;101479.84;10419927;28;20034;-80
2023/03/15 04:28:09;;;;;;;8.35;2.25;;;;;;;1.94;100.00;101500.19;10419008;28;20072;-81
2023/03/15 04:33:10;;;;;;;1.83;1.73;;;;;;;2.07;100.00;101516.03;10417844;28;20072;-78
2023/03/15 04:38:10;;;;;;;2.50;2.20;;;;;;;2.13;100.00;101525.38;10384220;28;20468;-79
2023/03/15 04:43:10;;;;;;;5.68;2.05;;;;;;;2.17;100.00;101516.13;10417954;28;20067;-79
2023/03/15 04:48:11;;;;;;;2.00;1.90;;;;;;;2.14;100.00;101522.59;10418064;28;20124;-79
2023/03/15 04:53:11;;;;;;;11.13;2.42;;;;;;;2.07;100.00;101530.28;10416873;28;20029;-79
2023/03/15 04:58:12;;;;;;;1.98;1.20;;;;;;;1.80;100.00;101541.38;10417735;28;20057;-79
2023/03/15 05:03:12;;;;;;;6.00;2.00;;;;;;;1.46;100.00;101537.06;10415564;28;20087;-79
2023/03/15 05:08:12;;;;;;;2.70;1.83;;;;;;;1.19;100.00;101542.78;10415984;28;20121;-79
2023/03/15 05:13:13;;;;;;;4.75;2.33;;;;;;;0.93;100.00;101551.84;10399436;28;20441;-79
2023/03/15 05:18:13;;;;;;;3.72;2.40;;;;;;;0.78;100.00;101561.03;10415029;28;20051;-78
2023/03/15 05:23:14;;;;;;;4.22;2.45;;;;;;;0.69;100.00;101554.56;10416654;28;20037;-80
2023/03/15 05:28:17;;;;;;;3.20;2.70;;;;;;;0.66;100.00;101573.47;10399779;28;20511;-81
2023/03/15 05:33:18;;;;;;;5.50;3.15;;;;;;;0.53;100.00;101575.38;10418294;28;20083;-79
2023/03/15 05:38:18;;;;;;;5.50;2.75;;;;;;;0.53;100.00;101577.19;10418232;28;20033;-75
2023/03/15 05:43:19;;;;;;;2.15;1.98;;;;;;;0.51;100.00;101587.09;10416813;28;20045;-77
2023/03/15 05:48:19;;;;;;;7.30;2.63;;;;;;;0.42;100.00;101596.66;10414991;28;20069;-76
2023/03/15 05:53:20;;;;;;;3.15;2.63;;;;;;;0.44;100.00;101610.69;10417480;28;20033;-74
2023/03/15 05:58:20;;;;;;;7.68;2.65;;;;;;;0.39;100.00;101618.19;10415050;28;20428;-78
2023/03/15 06:03:20;;;;;;;3.47;2.28;;;;;;;0.35;100.00;101635.34;10415121;28;20112;-78
2023/03/15 06:08:21;;;;;;;4.43;2.30;;;;;;;0.29;100.00;101641.13;10397894;28;20033;-75
2023/03/15 06:13:21;;;;;;;5.25;2.63;;;;;;;0.32;100.00;101644.44;10414768;28;20030;-77
2023/03/15 06:18:22;;;;;;;6.20;3.25;;;;;;;0.59;100.00;101649.53;10415502;28;20065;-78
2023/03/15 06:23:22;;;;;;;4.97;3.00;;;;;;;0.89;100.00;101659.72;10413807;28;20079;-77
2023/03/15 06:28:23;;;;;;;10.82;2.78;;;;;;;1.13;100.00;101672.16;10414922;28;20508;-77
2023/03/15 06:33:23;;;;;;;7.13;2.97;;;;;;;1.66;100.00;101676.94;10416865;28;20156;-77
2023/03/15 06:38:23;;;;;;;7.43;2.95;;;;;;;2.40;100.00;101685.28;10414723;28;20061;-77
2023/03/15 06:43:24;;;;;;;4.82;2.88;;;;;;;2.99;100.00;101693.69;10412170;28;20093;-77
2023/03/15 06:48:25;;;;;;;6.60;3.00;;;;;;;3.72;100.00;101693.75;10396490;28;20171;-78
2023/03/15 06:53:25;;;;;;;7.28;3.80;;;;;;;4.75;100.00;101703.34;10415217;28;20069;-78
2023/03/15 06:58:26;;;;;;;12.88;4.15;;;;;;;5.56;100.00;101698.50;10413328;28;20465;-78
2023/03/15 07:03:26;;;;;;;12.93;3.85;;;;;;;6.13;100.00;101711.94;10428489;28;20030;-78
2023/03/15 07:08:27;;;;;;;14.90;4.13;;;;;;;6.83;100.00;101712.19;10414647;28;20037;-79
2023/03/15 07:13:27;;;;;;;6.68;3.83;;;;;;;7.38;100.00;101714.72;10413550;28;20029;-79
2023/03/15 07:18:27;;;;;;;24.90;4.75;;;;;;;7.77;100.00;101717.84;10397073;28;20041;-79
2023/03/15 07:23:28;;;;;;;18.75;3.10;;;;;;;7.95;100.00;101731.28;10415066;28;20099;-79
2023/03/15 07:28:28;;;;;;;7.53;1.92;;;;;;;8.30;100.00;101740.22;10419019;28;20479;-79
2023/03/15 07:33:30;;;;;;;2.60;1.65;;;;;;;8.56;100.00;101727.53;10420749;28;20477;-79
2023/03/15 07:38:31;;;;;;;10.15;2.45;;;;;;;8.74;100.00;101740.03;10402580;28;20108;-79
2023/03/15 07:43:31;;;;;;;4.78;1.83;;;;;;;9.36;100.00;101745.06;10419802;28;20038;-78
2023/03/15 07:48:32;;;;;;;6.90;2.20;;;;;;;9.79;100.00;101760.03;10419596;28;20060;-77
2023/03/15 07:53:32;;;;;;;1.35;1.25;;;;;;;9.90;100.00;101762.41;10419938;28;20041;-78
2023/03/15 07:58:32;;;;;;;4.70;2.00;;;;;;;10.12;100.00;101766.25;10417973;28;20065;-78
2023/03/15 08:03:33;;;;;;;3.67;1.77;;;;;;;10.03;100.00;101770.00;10418588;28;20377;-78
2023/03/15 08:08:33;;;;;;;1.17;1.15;;;;;;;10.42;100.00;101783.59;10419306;28;20053;-77
2023/03/15 08:13:34;;;;;;;3.38;1.95;;;;;;;10.59;100.00;101792.53;10418579;28;20070;-77
2023/03/15 08:18:35;;;;;;;3.15;2.05;;;;;;;10.81;100.00;101795.44;10418950;28;20037;-76
2023/03/15 08:23:35;;;;;;;4.97;2.13;;;;;;;11.26;100.00;101807.38;10418748;28;20021;-75
2023/03/15 08:28:35;;;;;;;1.42;1.33;;;;;;;11.80;100.00;101807.28;10417907;28;20426;-75
2023/03/15 08:33:36;;;;;;;2.53;2.08;;;;;;;12.00;100.00;101810.38;10418061;28;20037;-75
2023/03/15 08:38:36;;;;;;;3.50;2.25;;;;;;;11.74;100.00;101808.03;10417623;28;20095;-75
2023/03/15 08:43:37;;;;;;;9.18;3.42;;;;;;;12.22;100.00;101798.63;10417841;28;20473;-75
2023/03/15 08:48:37;;;;;;;5.65;1.83;;;;;;;12.43;100.00;101806.00;10419207;28;20037;-74
2023/03/15 08:53:38;;;;;;;3.28;1.70;;;;;;;12.52;100.00;101809.47;10415566;28;20484;-74
2023/03/15 08:58:39;;;;;;;5.60;1.65;;;;;;;12.85;100.00;101811.78;10414676;28;20167;-75
2023/03/15 09:03:41;;;;;;;6.10;1.58;;;;;;;12.88;100.00;101814.13;10416889;28;20029;-76
2023/03/15 09:08:41;;;;;;;2.28;1.65;;;;;;;13.25;100.00;101808.50;10415207;28;20381;-75
2023/03/15 09:13:42;;;;;;;7.43;2.03;;;;;;;13.32;100.00;101803.16;10414097;28;20037;-76
2023/03/15 09:18:43;;;;;;;1.88;1.73;;;;;;;12.95;100.00;101796.84;10417082;28;20472;-75
2023/03/15 09:23:43;;;;;;;1.83;1.73;;;;;;;13.36;100.00;101788.09;10398438;28;20037;-75
2023/03/15 09:28:44;;;;;;;1.45;1.05;;;;;;;13.77;100.00;101792.03;10414400;28;20488;-75
2023/03/15 09:33:45;;;;;;;1.60;1.50;;;;;;;13.84;100.00;101795.66;10414316;28;20080;-75
2023/03/15 09:38:46;;;;;;;4.55;1.30;;;;;;;14.00;100.00;101797.25;10414402;28;20033;-75
2023/03/15 09:44:01;;;;;;;5.55;2.10;;;;;;;13.40;100.00;101799.44;10415108;28;20120;-75
2023/03/15 09:49:08;;;;;;;6.97;1.60;;;;;;;13.22;100.00;101795.28;10382484;28;20029;-75
2023/03/15 09:54:12;;;;;;;4.78;1.85;;;;;;;13.07;100.00;101796.34;10415808;28;20079;-75
2023/03/15 09:59:16;;;;;;;1.75;1.13;;;;;;;13.84;100.00;101806.53;10413667;28;20472;-75
2023/03/15 10:04:16;;;;;;;4.47;1.45;;;;;;;14.29;100.00;101794.28;10381513;28;20444;-75
2023/03/15 10:09:20;;;;;;;6.10;2.25;;;;;;;14.18;100.00;101813.94;10413183;28;20056;-75
2023/03/15 10:14:27;;;;;;;5.68;1.80;;;;;;;14.54;100.00;101813.75;10413497;28;20076;-75
2023/03/15 10:19:43;;;;;;;2.67;1.20;;;;;;;13.79;100.00;101831.66;10414937;28;20350;-75
2023/03/15 10:24:49;;;;;;;1.75;1.65;;;;;;;13.71;100.00;101839.94;10415065;28;20065;-75
2023/03/15 10:29:51;;;;;;;3.90;2.08;;;;;;;13.70;100.00;101849.16;10381868;28;20053;-75
2023/03/15 10:34:52;;;;;;;1.20;1.02;;;;;;;13.19;100.00;101857.38;10412405;28;20033;-76
2023/03/15 10:39:57;;;;;;;6.45;2.88;;;;;;;13.76;100.00;101858.41;10412856;28;20045;-75
2023/03/15 10:44:57;;;;;;;3.65;1.80;;;;;;;13.92;100.00;101860.88;10412632;28;20044;-75
2023/03/15 10:49:58;;;;;;;1.85;1.75;;;;;;;14.00;100.00;101860.72;10396723;28;20037;-75
2023/03/15 10:55:20;;;;;;;3.55;1.73;;;;;;;13.78;100.00;101872.66;10414253;28;20030;-75
2023/03/15 11:00:29;;;;;;;7.53;2.22;;;;;;;13.92;100.00;101880.78;10402354;28;20116;-76
2023/03/15 11:05:32;;;;;;;2.65;2.40;;;;;;;14.17;100.00;101883.91;10422118;28;20099;-77
2023/03/15 11:10:33;;;;;;;5.47;2.33;;;;;;;14.22;100.00;101893.38;10403540;28;20033;-76
2023/03/15 11:15:33;;;;;;;1.60;1.55;;;;;;;14.27;100.00;101872.69;10419589;28;20038;-77
2023/03/15 11:20:35;;;;;;;5.28;1.90;;;;;;;14.92;100.00;101873.31;10420317;28;20087;-77
2023/03/15 11:25:36;;;;;;;2.90;1.55;;;;;;;14.27;100.00;101871.84;10403151;28;20112;-77
2023/03/15 11:30:36;;;;;;;1.67;1.58;;;;;;;13.93;100.00;101881.59;10402821;28;20454;-77
2023/03/15 11:35:46;;;;;;;1.02;1.02;;;;;;;11.57;100.00;101881.41;10386421;28;20033;-77
2023/03/15 11:40:49;;;;;;;3.78;1.95;;;;;;;13.36;100.00;101877.03;10419379;28;20125;-77
2023/03/15 11:45:58;;;;;;;7.38;1.83;;;;;;;12.41;100.00;101884.16;10401788;28;20487;-77
2023/03/15 11:50:59;;;;;;;2.80;2.20;;;;;;;12.60;100.00;101873.72;10418753;28;20036;-77
2023/03/15 11:56:22;;;;;;;1.30;1.23;;;;;;;13.60;100.00;101876.69;10401599;28;20087;-77
2023/03/15 12:01:25;;;;;;;4.47;1.02;;;;;;;12.96;100.00;101884.69;10397723;28;20038;-76
2023/03/15 12:06:36;;;;;;;2.67;2.00;;;;;;;12.43;100.00;101884.78;10401475;28;20111;-76
2023/03/15 12:11:37;;;;;;;4.85;1.45;;;;;;;12.98;100.00;101890.78;10417468;28;20025;-76
2023/03/15 12:16:41;;;;;;;8.40;2.08;;;;;;;13.85;100.00;101887.19;10417519;28;20034;-76
2023/03/15 12:21:57;;;;;;;2.08;1.55;;;;;;;13.78;100.00;101889.00;10417557;28;20037;-76
2023/03/15 12:27:01;;;;;;;1.63;1.52;;;;;;;14.02;100.00;101883.16;10418688;28;20507;-76
2023/03/15 12:32:02;;;;;;;6.45;1.80;;;;;;;13.91;100.00;101878.22;10416907;28;20042;-76
2023/03/15 12:37:05;;;;;;;3.75;2.10;;;;;;;12.86;100.00;101884.13;10417564;28;20037;-76
2023/03/15 12:42:10;;;;;;;2.00;1.52;;;;;;;12.46;100.00;101870.81;10416798;28;20080;-77
2023/03/15 12:47:11;;;;;;;3.90;1.85;;;;;;;12.63;100.00;101879.63;10417215;28;20472;-76
2023/03/15 12:52:12;;;;;;;6.95;1.90;;;;;;;12.76;100.00;101874.41;10415944;28;20029;-76
2023/03/15 12:57:14;;;;;;;1.10;1.00;;;;;;;12.26;100.00;101862.38;10417620;28;20026;-76
2023/03/15 13:02:25;;;;;;;1.80;1.63;;;;;;;11.84;100.00;101862.91;10416146;28;20163;-76
2023/03/15 13:07:35;;;;;;;1.65;1.55;;;;;;;12.48;100.00;101859.78;10415102;28;20397;-76
2023/03/15 13:12:44;;;;;;;2.03;1.65;;;;;;;13.21;100.00;101858.03;10399802;28;20037;-76
2023/03/15 13:18:00;;;;;;;1.15;1.00;;;;;;;12.91;100.00;101863.50;10418247;28;20123;-77
2023/03/15 13:23:20;;;;;;;1.83;1.23;;;;;;;12.40;100.00;101863.41;10416860;28;20438;-76
2023/03/15 13:28:22;;;;;;;1.80;1.05;;;;;;;11.88;100.00;101869.69;10415127;28;20096;-76
2023/03/15 13:33:26;;;;;;;0.90;0.90;;;;;;;12.34;100.00;101870.44;10414002;28;20033;-76
2023/03/15 13:38:38;;;;;;;2.08;1.85;;;;;;;11.82;100.00;101870.38;10413529;28;20095;-76
2023/03/15 13:43:38;;;;;;;6.72;1.40;;;;;;;11.72;100.00;101876.06;10398705;28;20056;-76
2023/03/15 13:48:41;;;;;;;3.72;1.80;;;;;;;11.86;100.00;101877.16;10415149;28;20048;-76
2023/03/15 13:53:41;;;;;;;1.25;1.23;;;;;;;11.78;100.00;101869.06;10413572;28;20037;-77
2023/03/15 13:58:42;;;;;;;1.80;1.48;;;;;;;11.81;100.00;101882.28;10415641;28;20041;-77
2023/03/15 14:03:42;;;;;;;5.03;1.63;;;;;;;11.56;100.00;101881.59;10429925;28;20429;-77
2023/03/15 14:08:43;;;;;;;1.42;1.27;;;;;;;11.17;100.00;101877.94;10397642;28;20037;-77
2023/03/15 14:13:57;;;;;;;1.65;0.90;;;;;;;11.37;100.00;101894.59;10412856;28;20021;-77
2023/03/15 14:19:13;;;;;;;1.63;1.52;;;;;;;11.13;100.00;101894.72;10414221;28;20084;-77
2023/03/15 14:24:25;;;;;;;1.43;1.33;;;;;;;10.63;100.00;101869.69;10414347;28;20636;-78
2023/03/15 14:29:33;;;;;;;3.80;0.90;;;;;;;10.64;100.00;101875.94;10414069;28;20285;-77
2023/03/15 14:34:35;;;;;;;3.55;1.40;;;;;;;10.61;100.00;101884.44;10417587;28;20033;-77
2023/03/15 14:39:40;;;;;;;1.73;1.27;;;;;;;10.81;100.00;101874.03;10421109;28;20033;-77
2023/03/15 14:44:40;;;;;;;5.80;1.70;;;;;;;10.67;100.00;101864.78;10420995;28;20036;-77
2023/03/15 14:49:41;;;;;;;5.78;1.60;;;;;;;10.54;100.00;101861.78;10421993;28;20034;-77
2023/03/15 14:54:45;;;;;;;1.17;1.15;;;;;;;10.40;100.00;101863.31;10420561;28;20124;-78
2023/03/15 14:59:47;;;;;;;1.60;1.17;;;;;;;10.19;100.00;101866.53;10387669;28;20061;-77
2023/03/15 15:04:47;;;;;;;1.67;1.00;;;;;;;10.36;100.00;101860.09;10420804;28;20033;-77
2023/03/15 15:09:48;;;;;;;2.97;1.27;;;;;;;9.82;100.00;101853.53;10422462;28;20041;-78
2023/03/15 15:14:48;;;;;;;5.03;1.45;;;;;;;9.97;100.00;101847.28;10420909;28;20542;-77
2023/03/15 15:19:48;;;;;;;2.47;1.25;;;;;;;9.48;100.00;101857.25;10420692;28;20143;-78
2023/03/15 15:24:49;;;;;;;1.88;1.67;;;;;;;9.14;100.00;101844.66;10420635;28;20469;-78
2023/03/15 15:29:49;;;;;;;1.45;1.35;;;;;;;9.06;100.00;101840.09;10420781;28;20140;-78
2023/03/15 15:34:53;;;;;;;0.98;0.98;;;;;;;8.86;100.00;101827.88;10422611;28;20032;-78
2023/03/15 15:39:54;;;;;;;4.20;1.65;;;;;;;8.67;100.00;101831.66;10421158;28;20045;-78
2023/03/15 15:44:54;;;;;;;3.53;1.85;;;;;;;8.67;100.00;101837.06;10417337;28;20029;-79
2023/03/15 15:49:54;;;;;;;2.60;0.85;;;;;;;8.39;100.00;101833.72;10419079;28;20042;-78
2023/03/15 15:54:55;;;;;;;1.33;1.23;;;;;;;8.30;100.00;101829.28;10420401;28;20065;-78
2023/03/15 15:59:55;;;;;;;2.70;2.05;;;;;;;8.26;100.00;101828.72;10418241;28;20500;-78
2023/03/15 16:04:56;;;;;;;3.92;2.10;;;;;;;8.26;100.00;101831.41;10419907;28;20477;-78
2023/03/15 16:09:56;;;;;;;1.35;1.30;;;;;;;8.12;100.00;101826.63;10420437;28;20038;-78
2023/03/15 16:14:57;;;;;;;3.95;1.88;;;;;;;8.03;100.00;101827.56;10418754;28;20060;-78
2023/03/15 16:19:57;;;;;;;1.95;1.80;;;;;;;7.82;100.00;101836.88;10419456;28;20481;-78
2023/03/15 16:25:00;;;;;;;4.18;2.33;;;;;;;7.84;100.00;101825.91;10420714;28;20042;-78
2023/03/15 16:30:01;;;;;;;1.70;1.63;;;;;;;7.93;100.00;101830.38;10418611;28;20053;-78
2023/03/15 16:35:03;;;;;;;1.95;1.75;;;;;;;7.90;100.00;101823.44;10416507;28;20051;-79
2023/03/15 16:40:09;;;;;;;3.35;2.20;;;;;;;7.79;100.00;101822.84;10417351;28;20036;-78
2023/03/15 16:45:13;;;;;;;3.37;3.07;;;;;;;7.53;100.00;101818.28;10418597;28;20108;-78
2023/03/15 16:50:13;;;;;;;4.90;2.83;;;;;;;7.48;100.00;101823.25;10383828;28;20029;-78
2023/03/15 16:55:16;;;;;;;3.17;2.97;;;;;;;7.49;100.00;101818.72;10418278;28;20037;-78
2023/03/15 17:00:17;;;;;;;4.43;3.03;;;;;;;7.44;100.00;101822.72;10416232;28;20040;-78
2023/03/15 17:05:20;;;;;;;4.68;4.10;;;;;;;7.35;100.00;101833.59;10399035;28;20461;-78
2023/03/15 17:10:22;;;;;;;5.00;3.40;;;;;;;7.34;100.00;101818.41;10398658;28;20022;-78
2023/03/15 17:15:24;;;;;;;7.05;4.00;;;;;;;7.21;100.00;101829.56;10398666;28;20425;-78
2023/03/15 17:20:28;;;;;;;5.18;3.45;;;;;;;7.20;100.00;101826.03;10416109;28;20035;-78
2023/03/15 17:25:28;;;;;;;5.03;4.50;;;;;;;7.13;100.00;101837.56;10398968;28;20112;-78
2023/03/15 17:30:33;;;;;;;4.90;3.83;;;;;;;7.14;100.00;101825.78;10416405;28;20045;-78
2023/03/15 17:35:40;;;;;;;12.05;4.05;;;;;;;6.97;100.00;101825.59;10415304;28;20025;-77
2023/03/15 17:40:41;;;;;;;6.90;4.28;;;;;;;6.99;100.00;101828.16;10398647;28;20040;-78
2023/03/15 17:45:41;;;;;;;7.50;3.92;;;;;;;7.03;100.00;101836.78;10414039;28;20041;-77
2023/03/15 17:50:42;;;;;;;8.05;4.13;;;;;;;7.00;100.00;101829.84;10415852;28;20401;-78
2023/03/15 17:55:43;;;;;;;10.60;3.58;;;;;;;6.95;100.00;101830.28;10413659;28;20026;-78
2023/03/15 18:00:43;;;;;;;4.25;3.95;;;;;;;6.93;100.00;101842.22;10413813;28;20060;-78
2023/03/15 18:05:44;;;;;;;11.93;3.95;;;;;;;6.98;100.00;101840.75;10413821;28;20034;-78
2023/03/15 18:10:45;;;;;;;3.53;3.33;;;;;;;6.91;100.00;101836.97;10413511;28;20381;-79
2023/03/15 18:15:46;;;;;;;5.88;4.57;;;;;;;6.87;100.00;101834.75;10398147;28;20408;-78
2023/03/15 18:20:48;;;;;;;4.72;4.25;;;;;;;6.85;100.00;101836.75;10397466;28;20029;-78
2023/03/15 18:25:48;;;;;;;4.88;4.13;;;;;;;6.74;100.00;101835.09;10413110;28;20035;-77
2023/03/15 18:30:49;;;;;;;10.45;4.15;;;;;;;6.70;100.00;101837.25;10413661;28;20068;-78
2023/03/15 18:35:49;;;;;;;5.32;4.63;;;;;;;6.72;100.00;101823.63;10416006;28;20078;-77
2023/03/15 18:40:50;;;;;;;5.43;3.67;;;;;;;6.70;100.00;101821.09;10414086;28;20043;-78
2023/03/15 18:45:51;;;;;;;4.47;4.07;;;;;;;6.75;100.00;101832.25;10413031;28;20067;-77
2023/03/15 18:50:51;;;;;;;6.65;3.53;;;;;;;6.73;100.00;101825.31;10413257;28;20167;-77
2023/03/15 18:55:52;;;;;;;5.18;3.72;;;;;;;6.75;100.00;101834.94;10413898;28;20029;-77
2023/03/15 19:00:52;;;;;;;3.60;3.25;;;;;;;6.73;100.00;101830.69;10414099;28;20045;-77
2023/03/15 19:05:52;;;;;;;4.15;3.85;;;;;;;6.73;100.00;101822.63;10414186;28;20037;-78
2023/03/15 19:10:57;;;;;;;8.55;3.15;;;;;;;6.71;100.00;101820.09;10413516;28;20408;-77
2023/03/15 19:15:58;;;;;;;4.63;4.20;;;;;;;6.69;100.00;101816.69;10396439;28;20509;-78
2023/03/15 19:20:58;;;;;;;3.75;3.50;;;;;;;6.65;100.00;101812.63;10417920;28;20038;-77
2023/03/15 19:25:59;;;;;;;6.40;3.35;;;;;;;6.54;100.00;101818.22;10420966;28;20501;-77
2023/03/15 19:30:59;;;;;;;2.97;2.78;;;;;;;6.45;100.00;101819.94;10422203;28;20057;-77
2023/03/15 19:36:00;;;;;;;4.18;3.28;;;;;;;6.53;100.00;101806.56;10419528;28;20076;-78
2023/03/15 19:41:04;;;;;;;4.72;4.25;;;;;;;6.44;100.00;101809.31;10402702;28;20025;-78
2023/03/15 19:46:06;;;;;;;3.72;3.40;;;;;;;6.45;100.00;101800.25;10418781;28;20033;-77
2023/03/15 19:51:07;;;;;;;14.75;4.10;;;;;;;6.46;100.00;101800.09;10417798;28;20041;-77
2023/03/15 19:56:08;;;;;;;4.18;3.53;;;;;;;6.44;100.00;101801.22;10419493;28;20093;-77
2023/03/15 20:01:10;;;;;;;4.43;3.95;;;;;;;6.41;100.00;101801.53;10419673;28;20390;-77
2023/03/15 20:06:13;;;;;;;5.65;3.95;;;;;;;6.38;100.00;101809.91;10422290;28;20341;-77
2023/03/15 20:11:18;;;;;;;5.93;3.60;;;;;;;6.34;100.00;101809.34;10401954;28;20056;-77
2023/03/15 20:16:20;;;;;;;5.68;4.65;;;;;;;6.35;100.00;101802.13;10419588;28;20116;-76
2023/03/15 20:21:20;;;;;;;7.18;5.32;;;;;;;6.29;100.00;101801.72;10417768;28;20037;-78
2023/03/15 20:26:22;;;;;;;7.78;4.68;;;;;;;6.27;100.00;101805.56;10435248;28;20084;-76
2023/03/15 20:31:23;;;;;;;7.25;5.15;;;;;;;6.23;100.00;101804.16;10416685;28;20061;-75
2023/03/15 20:36:25;;;;;;;4.55;4.10;;;;;;;6.20;100.00;101789.16;10416749;28;20045;-76
2023/03/15 20:41:26;;;;;;;5.95;4.32;;;;;;;6.22;100.00;101789.00;10416655;28;20025;-76
2023/03/15 20:46:26;;;;;;;7.00;4.40;;;;;;;6.13;100.00;101785.38;10400517;28;20077;-75
2023/03/15 20:51:27;;;;;;;10.23;3.85;;;;;;;6.07;100.00;101783.28;10416372;28;20116;-75
2023/03/15 20:56:27;;;;;;;3.60;3.03;;;;;;;6.00;100.00;101795.63;10417782;28;20453;-77
2023/03/15 21:01:28;;;;;;;4.40;3.55;;;;;;;5.99;100.00;101783.13;10416800;28;20064;-77
2023/03/15 21:06:29;;;;;;;6.75;3.63;;;;;;;5.89;100.00;101780.44;10416924;28;20033;-76
2023/03/15 21:11:29;;;;;;;3.50;3.20;;;;;;;5.74;100.00;101772.00;10398380;28;20129;-76
2023/03/15 21:16:32;;;;;;;3.55;3.25;;;;;;;5.71;100.00;101771.44;10416937;28;20050;-77
2023/03/15 21:21:35;;;;;;;3.60;3.00;;;;;;;5.60;100.00;101775.13;10415013;28;20113;-77
2023/03/15 21:26:36;;;;;;;5.38;3.63;;;;;;;5.56;100.00;101771.88;10399668;28;20424;-77
2023/03/15 21:31:37;;;;;;;4.13;3.72;;;;;;;5.53;100.00;101757.91;10415344;28;20580;-77
2023/03/15 21:36:38;;;;;;;4.75;4.20;;;;;;;5.55;100.00;101751.41;10415957;28;20036;-77
2023/03/15 21:41:38;;;;;;;4.68;4.03;;;;;;;5.62;100.00;101751.66;10415018;28;20457;-78
2023/03/15 21:46:39;;;;;;;4.82;4.43;;;;;;;5.58;100.00;101744.84;10415018;28;20041;-77
2023/03/15 21:51:44;;;;;;;8.70;4.78;;;;;;;5.57;100.00;101748.53;10414070;28;20044;-76
2023/03/15 21:56:45;;;;;;;5.00;4.50;;;;;;;5.55;100.00;101743.34;10414600;28;20060;-79
2023/03/15 22:01:47;;;;;;;7.50;5.05;;;;;;;5.55;100.00;101735.28;10415472;28;20489;-79
2023/03/15 22:06:47;;;;;;;9.57;5.13;;;;;;;5.49;100.00;101729.63;10415932;28;20068;-78
2023/03/15 22:11:48;;;;;;;4.28;3.97;;;;;;;5.48;100.00;101734.13;10414592;28;20065;-79
2023/03/15 22:16:48;;;;;;;5.15;3.65;;;;;;;5.47;100.00;101748.56;10417437;28;20038;-79
2023/03/15 22:21:49;;;;;;;4.60;4.22;;;;;;;5.50;100.00;101742.91;10420541;28;20037;-79
2023/03/15 22:26:51;;;;;;;4.63;4.22;;;;;;;5.53;100.00;101741.78;10414839;28;20463;-78
2023/03/15 22:31:52;;;;;;;6.53;4.18;;;;;;;5.62;100.00;101738.22;10414560;28;20452;-78
2023/03/15 22:36:52;;;;;;;4.50;4.05;;;;;;;5.57;100.00;101722.53;10396704;28;20084;-78
2023/03/15 22:41:53;;;;;;;4.72;4.30;;;;;;;5.58;100.00;101732.31;10396692;28;20543;-78
2023/03/15 22:46:53;;;;;;;5.15;4.70;;;;;;;5.61;100.00;101717.69;10414233;28;20457;-78
2023/03/15 22:51:53;;;;;;;6.93;4.28;;;;;;;5.59;100.00;101708.97;10412831;28;20041;-78
2023/03/15 22:56:54;;;;;;;5.18;4.60;;;;;;;5.62;100.00;101703.31;10420972;28;20069;-78
2023/03/15 23:01:55;;;;;;;7.03;5.28;;;;;;;5.67;100.00;101705.53;10405184;28;20033;-78